Terminal Aerodrome Forecast
Issued by NWS Corpus Christi, TX

Current Version | Previous Version | Text Only | Print | Product List | Glossary On
Versions: 1 2 3 4 5 6 7 8 9 10 11 12 13 14 15 16 17 18 19 20
000
FTUS44 KCRP 231700
TAFCRP
TAF
KCRP 231734Z 2318/2418 16013G18KT P6SM SCT030
     FM231900 14018G24KT P6SM FEW040
     FM240200 14014KT P6SM SCT012 SCT250
     FM240400 16012KT P6SM OVC012
     FM240700 17010KT P6SM OVC008
     FM241400 15014KT P6SM BKN018=

USA.gov is the U.S. government's official web portal to all federal, state and local government web resources and services.